Terminal Aerodrome Forecast
Issued by NWS Sioux Falls, SD

Home | Current Version | Previous Version | Graphics & Text | Print | Product List | Glossary On
Versions: 1 2 3 4 5 6 7 8 9 10 11 12 13 14 15 16 17 18
487
FTUS43 KFSD 191951 AAA
TAFFSD
TAF AMD
KFSD 191951Z 1920/2018 17015G21KT P6SM SCT200
     FM200200 17014KT P6SM BKN200 WS016/18040KT
     FM200600 17014KT P6SM OVC015 WS016/19043KT
     FM200900 18013KT 5SM BR OVC008
     FM201200 17012KT 4SM BR OVC008
     FM201600 21013KT 5SM BR OVC020
     FM201700 25013KT P6SM OVC025=

USA.gov is the U.S. government's official web portal to all federal, state and local government web resources and services.